createdAt,value
2018-02-21T00:01:59.492Z,68.50
2018-02-21T00:04:27.028Z,69.30
2018-02-21T00:06:54.648Z,69.60
2018-02-21T00:09:22.734Z,69.20
2018-02-21T00:11:54.918Z,68.80
2018-02-21T00:14:22.915Z,69.30
2018-02-21T00:16:51.718Z,69.90
2018-02-21T00:19:22.650Z,69.90
2018-02-21T00:21:59.256Z,69.80
2018-02-21T00:24:30.898Z,69.90
2018-02-21T00:27:01.205Z,69.90
2018-02-21T00:29:31.811Z,69.70
2018-02-21T00:32:02.183Z,69.60
2018-02-21T00:34:29.768Z,69.60
2018-02-21T00:37:05.138Z,69.50
2018-02-21T00:39:34.205Z,69.30
2018-02-21T00:42:04.290Z,69.90
2018-02-21T00:44:32.371Z,68.70
2018-02-21T00:47:00.365Z,68.70
2018-02-21T00:49:32.219Z,68.90
2018-02-21T00:52:02.135Z,69.60
2018-02-21T00:54:39.025Z,69.90
2018-02-21T00:57:07.034Z,69.20
2018-02-21T00:59:36.120Z,69.80
2018-02-21T01:02:05.262Z,68.70
2018-02-21T01:04:34.153Z,69.20
2018-02-21T01:07:04.784Z,68.80
2018-02-21T01:09:33.362Z,68.60
2018-02-21T01:12:03.433Z,69.40
2018-02-21T01:14:31.163Z,68.70
2018-02-21T01:17:00.017Z,68.80
2018-02-21T01:22:08.270Z,69.10
2018-02-21T01:24:38.111Z,69.70
2018-02-21T01:27:06.316Z,69.10
2018-02-21T01:29:34.895Z,69.10
2018-02-21T01:32:03.999Z,69.30
2018-02-21T01:34:34.016Z,69.40
2018-02-21T01:37:03.326Z,69.20
2018-02-21T01:39:34.778Z,69.40
2018-02-21T01:42:03.913Z,69.60
2018-02-21T01:44:34.703Z,68.80
2018-02-21T01:47:03.008Z,68.90
2018-02-21T01:49:31.392Z,83.60
2018-02-21T01:52:01.065Z,69.20
2018-02-21T01:57:12.061Z,69.40
2018-02-21T01:59:41.142Z,69.70
2018-02-21T02:02:08.800Z,75.40
2018-02-21T02:04:40.669Z,95.00
2018-02-21T02:07:08.944Z,69.80
2018-02-21T02:09:36.544Z,69.70
2018-02-21T02:12:05.648Z,69.30
2018-02-21T02:14:36.630Z,69.20
2018-02-21T02:17:08.056Z,69.50
2018-02-21T02:19:38.407Z,69.60
2018-02-21T02:22:09.830Z,69.40
2018-02-21T02:24:43.911Z,69.10
2018-02-21T02:27:18.959Z,70.00
2018-02-21T02:29:52.835Z,69.20
2018-02-21T02:32:23.260Z,68.30
2018-02-21T02:34:51.553Z,70.30
2018-02-21T02:37:23.490Z,70.20
2018-02-21T02:40:01.598Z,69.30
2018-02-21T02:45:05.673Z,69.80
2018-02-21T02:47:34.793Z,69.20
2018-02-21T02:50:03.665Z,69.60
2018-02-21T02:52:32.591Z,69.40
2018-02-21T02:57:41.259Z,69.30
2018-02-21T03:00:13.668Z,70.30
2018-02-21T03:02:41.468Z,69.00
2018-02-21T03:05:09.898Z,69.00
2018-02-21T03:10:11.647Z,69.90
2018-02-21T03:12:41.673Z,69.80
2018-02-21T03:15:11.860Z,69.50
2018-02-21T03:17:50.940Z,69.60
2018-02-21T03:22:54.104Z,69.90
2018-02-21T03:25:23.983Z,69.80
2018-02-21T03:27:53.609Z,69.50
2018-02-21T03:30:23.021Z,69.80
2018-02-21T03:32:56.726Z,70.50
2018-02-21T03:35:27.950Z,71.40
2018-02-21T03:37:55.661Z,69.90
2018-02-21T03:40:27.826Z,69.90
2018-02-21T03:42:57.025Z,70.10
2018-02-21T03:45:29.318Z,70.60
2018-02-21T03:47:58.417Z,69.90
2018-02-21T03:50:28.829Z,70.10
2018-02-21T03:52:58.915Z,70.80
2018-02-21T03:55:32.807Z,70.20
2018-02-21T03:58:04.624Z,99.90
2018-02-21T04:00:34.319Z,70.20
2018-02-21T04:03:04.190Z,71.80
2018-02-21T04:05:32.876Z,70.20
2018-02-21T04:08:00.877Z,70.80
2018-02-21T04:10:35.276Z,71.40
2018-02-21T04:13:07.300Z,71.00
2018-02-21T04:15:34.842Z,70.70
2018-02-21T04:18:03.543Z,71.30
2018-02-21T04:20:35.205Z,70.70
2018-02-21T04:23:04.371Z,70.70
2018-02-21T04:25:32.002Z,70.80
2018-02-21T04:28:00.474Z,71.00
2018-02-21T04:30:32.852Z,71.00
2018-02-21T04:33:03.150Z,70.20
2018-02-21T04:35:35.271Z,70.50
2018-02-21T04:38:02.826Z,70.70
2018-02-21T04:40:37.304Z,70.80
2018-02-21T04:43:06.519Z,70.70
2018-02-21T04:45:34.064Z,70.60
2018-02-21T04:48:02.876Z,70.70
2018-02-21T04:50:32.277Z,72.40
2018-02-21T04:53:01.590Z,71.40
2018-02-21T04:55:35.002Z,70.40
2018-02-21T04:58:06.971Z,70.60
2018-02-21T05:00:36.140Z,70.70
2018-02-21T05:03:05.371Z,71.40
2018-02-21T05:05:33.027Z,71.10
2018-02-21T05:08:04.417Z,71.40
2018-02-21T05:10:32.631Z,70.80
2018-02-21T05:13:01.122Z,70.30
2018-02-21T05:15:29.515Z,70.50
2018-02-21T05:17:57.030Z,91.30
2018-02-21T05:20:25.335Z,71.50
2018-02-21T05:22:52.874Z,70.90
2018-02-21T05:25:20.503Z,70.80
2018-02-21T05:27:51.112Z,71.30
2018-02-21T05:30:18.704Z,70.90
2018-02-21T05:32:47.069Z,71.40
2018-02-21T05:35:20.683Z,70.50
2018-02-21T05:37:49.312Z,70.10
2018-02-21T05:40:17.384Z,70.50
2018-02-21T05:42:48.654Z,70.90
2018-02-21T05:45:16.219Z,71.20
2018-02-21T05:47:43.740Z,71.40
2018-02-21T05:50:13.232Z,71.50
2018-02-21T05:52:47.348Z,72.10
2018-02-21T05:55:15.402Z,71.30
2018-02-21T05:57:43.776Z,72.50
2018-02-21T06:00:12.128Z,72.50
2018-02-21T06:02:39.716Z,71.60
2018-02-21T06:05:07.294Z,71.60
2018-02-21T06:07:36.493Z,72.10
2018-02-21T06:10:04.815Z,71.30
2018-02-21T06:12:32.407Z,71.30
2018-02-21T06:15:00.742Z,71.90
2018-02-21T06:17:29.055Z,71.00
2018-02-21T06:19:57.079Z,70.90
2018-02-21T06:22:25.402Z,70.80
2018-02-21T06:24:53.732Z,70.60
2018-02-21T06:27:22.795Z,70.60
2018-02-21T06:29:53.030Z,70.60
2018-02-21T06:32:23.136Z,70.60
2018-02-21T06:34:51.505Z,71.30
2018-02-21T06:37:19.781Z,71.80
2018-02-21T06:39:48.165Z,71.70
2018-02-21T06:42:17.977Z,71.70
2018-02-21T06:44:46.354Z,71.50
2018-02-21T06:47:14.715Z,71.60
2018-02-21T06:49:44.034Z,71.70
2018-02-21T06:52:13.043Z,71.30
2018-02-21T06:54:40.638Z,70.70
2018-02-21T06:57:08.365Z,70.70
2018-02-21T06:59:35.926Z,70.60
2018-02-21T07:02:04.429Z,70.90
2018-02-21T07:04:34.162Z,71.20
2018-02-21T07:07:01.670Z,71.00
2018-02-21T07:09:30.191Z,70.80
2018-02-21T07:11:57.751Z,70.40
2018-02-21T07:14:27.106Z,70.30
2018-02-21T07:16:54.663Z,70.50
2018-02-21T07:19:22.257Z,70.80
2018-02-21T07:21:51.441Z,70.70
2018-02-21T07:24:19.119Z,70.90
2018-02-21T07:26:47.432Z,71.20
2018-02-21T07:29:15.196Z,71.30
2018-02-21T07:31:42.731Z,71.30
2018-02-21T07:34:10.982Z,96.50
2018-02-21T07:36:40.988Z,70.80
2018-02-21T07:39:09.338Z,70.30
2018-02-21T07:41:38.496Z,71.50
2018-02-21T07:44:07.163Z,70.80
2018-02-21T07:46:34.668Z,71.80
2018-02-21T07:49:03.061Z,72.10
2018-02-21T07:51:31.277Z,70.80
2018-02-21T07:53:59.668Z,70.30
2018-02-21T07:56:28.222Z,70.40
2018-02-21T07:58:55.722Z,70.40
2018-02-21T08:01:23.293Z,70.20
2018-02-21T08:03:53.231Z,70.50
2018-02-21T08:06:20.787Z,70.00
2018-02-21T08:08:48.370Z,70.30
2018-02-21T08:11:17.193Z,70.70
2018-02-21T08:13:44.781Z,71.00
2018-02-21T08:16:12.334Z,70.60
2018-02-21T08:18:39.867Z,70.70
2018-02-21T08:21:07.461Z,70.90
2018-02-21T08:23:36.470Z,71.80
2018-02-21T08:26:04.783Z,72.10
2018-02-21T08:28:33.543Z,70.30
2018-02-21T08:31:02.468Z,70.20
2018-02-21T08:33:30.607Z,70.20
2018-02-21T08:35:59.722Z,70.30
2018-02-21T08:38:27.270Z,70.70
2018-02-21T08:40:54.778Z,70.70
2018-02-21T08:43:23.835Z,71.50
2018-02-21T08:45:52.776Z,71.20
2018-02-21T08:48:21.919Z,71.30
2018-02-21T08:50:50.063Z,70.80
2018-02-21T08:53:19.249Z,75.70
2018-02-21T08:55:47.622Z,71.80
2018-02-21T08:58:15.924Z,70.40
2018-02-21T09:00:43.502Z,69.20
2018-02-21T09:03:11.145Z,69.80
2018-02-21T09:05:38.671Z,70.10
2018-02-21T09:08:06.217Z,69.20
2018-02-21T09:10:34.614Z,70.50
2018-02-21T09:13:02.952Z,71.50
2018-02-21T09:15:30.479Z,71.10
2018-02-21T09:17:59.734Z,70.20
2018-02-21T09:20:27.350Z,69.80
2018-02-21T09:22:55.625Z,69.10
2018-02-21T09:25:23.752Z,67.60
2018-02-21T09:27:51.271Z,68.00
2018-02-21T09:30:18.793Z,68.20
2018-02-21T09:32:46.303Z,68.10
2018-02-21T09:35:13.855Z,68.70
2018-02-21T09:37:41.386Z,68.40
2018-02-21T09:40:09.312Z,67.30
2018-02-21T09:42:38.196Z,66.20
2018-02-21T09:45:05.649Z,73.20
2018-02-21T09:47:33.612Z,69.90
2018-02-21T09:50:01.140Z,66.50
2018-02-21T09:52:28.637Z,66.30
2018-02-21T09:54:56.181Z,66.00
2018-02-21T09:57:23.655Z,66.50
2018-02-21T09:59:52.993Z,66.60
2018-02-21T10:02:21.196Z,67.00
2018-02-21T10:04:48.877Z,66.80
2018-02-21T10:07:17.322Z,65.10
2018-02-21T10:09:45.649Z,64.30
2018-02-21T10:12:13.162Z,63.90
2018-02-21T10:14:40.706Z,63.70
2018-02-21T10:17:08.257Z,65.00
2018-02-21T10:19:39.605Z,66.70
2018-02-21T10:22:07.163Z,62.60
2018-02-21T10:24:34.699Z,62.90
2018-02-21T10:27:04.980Z,65.70
2018-02-21T10:29:32.569Z,63.30
2018-02-21T10:32:00.015Z,62.70
2018-02-21T10:34:27.867Z,62.10
2018-02-21T10:36:56.104Z,62.70
2018-02-21T10:39:23.829Z,61.90
2018-02-21T10:41:51.755Z,62.20
2018-02-21T10:44:19.637Z,61.20
2018-02-21T10:46:49.327Z,62.00
2018-02-21T10:49:17.766Z,63.40
2018-02-21T10:51:46.126Z,63.60
2018-02-21T10:54:14.717Z,64.30
2018-02-21T10:56:42.880Z,60.30
2018-02-21T10:59:11.484Z,59.50
2018-02-21T11:01:39.404Z,58.50
2018-02-21T11:04:07.249Z,58.40
2018-02-21T11:06:34.948Z,59.80
2018-02-21T11:09:03.165Z,59.00
2018-02-21T11:11:31.302Z,58.80
2018-02-21T11:13:59.912Z,61.60
2018-02-21T11:16:28.561Z,62.60
2018-02-21T11:18:57.199Z,61.70
2018-02-21T11:21:25.044Z,59.00
2018-02-21T11:23:54.025Z,58.70
2018-02-21T11:26:21.808Z,57.40
2018-02-21T11:28:49.981Z,59.60
2018-02-21T11:31:18.209Z,57.80
2018-02-21T11:33:46.170Z,57.50
2018-02-21T11:36:15.654Z,57.40
2018-02-21T11:38:44.394Z,58.10
2018-02-21T11:41:12.474Z,57.70
2018-02-21T11:43:40.413Z,57.10
2018-02-21T11:46:08.788Z,71.50
2018-02-21T11:48:37.819Z,59.60
2018-02-21T11:51:06.623Z,58.10
2018-02-21T11:53:34.898Z,56.60
2018-02-21T11:56:06.560Z,58.30
2018-02-21T11:58:35.072Z,57.70
2018-02-21T12:01:02.752Z,57.70
2018-02-21T12:03:30.521Z,58.10
2018-02-21T12:05:58.136Z,56.80
2018-02-21T12:08:27.025Z,57.00
2018-02-21T12:10:55.571Z,56.40
2018-02-21T12:13:25.346Z,56.20
2018-02-21T12:15:53.823Z,56.90
2018-02-21T12:18:21.579Z,56.60
2018-02-21T12:20:49.970Z,55.20
2018-02-21T12:23:18.018Z,55.10
2018-02-21T12:25:45.820Z,55.80
2018-02-21T12:28:14.028Z,55.40
2018-02-21T12:30:41.936Z,55.40
2018-02-21T12:33:10.479Z,56.20
2018-02-21T12:35:38.257Z,55.80
2018-02-21T12:38:06.163Z,56.90
2018-02-21T12:43:36.614Z,56.40
2018-02-21T12:46:04.849Z,55.40
2018-02-21T12:48:33.798Z,57.20
2018-02-21T12:51:01.546Z,57.20
2018-02-21T12:53:29.438Z,55.50
2018-02-21T12:55:57.131Z,55.20
2018-02-21T12:58:26.533Z,56.20
2018-02-21T13:00:54.517Z,55.90
2018-02-21T13:03:23.321Z,55.60
2018-02-21T13:05:52.045Z,54.70
2018-02-21T13:08:21.422Z,55.70
2018-02-21T13:10:50.115Z,56.30
2018-02-21T13:13:19.059Z,55.30
2018-02-21T13:15:47.657Z,55.10
2018-02-21T13:18:15.608Z,55.00
2018-02-21T13:20:43.260Z,54.50
2018-02-21T13:23:10.969Z,54.10
2018-02-21T13:25:38.588Z,55.20
2018-02-21T13:28:07.805Z,55.90
2018-02-21T13:30:36.275Z,54.00
2018-02-21T13:33:03.974Z,54.70
2018-02-21T13:35:32.884Z,54.20
2018-02-21T13:38:00.708Z,54.20
2018-02-21T13:40:29.244Z,55.60
2018-02-21T13:42:57.216Z,55.30
2018-02-21T13:45:25.315Z,55.30
2018-02-21T13:47:54.098Z,54.40
2018-02-21T13:50:22.819Z,54.30
2018-02-21T13:52:51.825Z,53.40
2018-02-21T13:55:19.915Z,54.00
2018-02-21T13:57:47.770Z,53.80
2018-02-21T14:00:15.490Z,53.40
2018-02-21T14:02:44.118Z,54.40
2018-02-21T14:05:11.841Z,53.60
2018-02-21T14:07:39.615Z,54.00
2018-02-21T14:10:08.154Z,55.40
2018-02-21T14:12:36.865Z,55.40
2018-02-21T14:15:05.367Z,54.70
2018-02-21T14:17:34.291Z,55.00
2018-02-21T14:20:02.229Z,55.40
2018-02-21T14:22:29.713Z,55.70
2018-02-21T14:24:57.177Z,56.40
2018-02-21T14:27:24.647Z,55.90
2018-02-21T14:29:52.090Z,57.20
2018-02-21T14:32:19.548Z,56.70
2018-02-21T14:34:46.997Z,57.20
2018-02-21T14:37:14.451Z,57.40
2018-02-21T14:39:41.916Z,58.10
2018-02-21T14:42:09.372Z,58.00
2018-02-21T14:44:36.828Z,57.60
2018-02-21T14:47:04.285Z,57.60
2018-02-21T14:49:31.738Z,57.10
2018-02-21T14:51:59.189Z,57.50
2018-02-21T14:54:26.648Z,57.90
2018-02-21T14:56:54.108Z,57.80
2018-02-21T14:59:21.553Z,58.10
2018-02-21T15:01:49.006Z,58.30
2018-02-21T15:04:17.226Z,58.60
2018-02-21T15:06:44.700Z,83.20
2018-02-21T15:09:12.141Z,58.80
2018-02-21T15:11:40.007Z,59.30
2018-02-21T15:14:07.849Z,59.30
2018-02-21T15:16:35.293Z,59.30
2018-02-21T15:19:02.767Z,59.70
2018-02-21T15:21:30.215Z,60.00
2018-02-21T15:23:57.678Z,60.40
2018-02-21T15:26:25.130Z,60.50
2018-02-21T15:28:52.592Z,60.70
2018-02-21T15:31:20.046Z,60.00
2018-02-21T15:33:47.514Z,60.80
2018-02-21T15:36:14.969Z,61.40
2018-02-21T15:38:42.478Z,61.70
2018-02-21T15:41:09.890Z,61.60
2018-02-21T15:43:37.350Z,61.50
2018-02-21T15:46:04.811Z,61.70
2018-02-21T15:48:32.261Z,62.30
2018-02-21T15:50:59.722Z,62.80
2018-02-21T15:53:27.184Z,63.30
2018-02-21T15:55:55.960Z,63.40
2018-02-21T15:58:23.423Z,63.30
2018-02-21T16:00:50.884Z,64.00
2018-02-21T16:03:18.343Z,64.80
2018-02-21T16:05:47.338Z,65.00
2018-02-21T16:08:14.790Z,68.80
2018-02-21T16:10:42.253Z,64.50
2018-02-21T16:13:10.474Z,64.70
2018-02-21T16:15:37.938Z,77.10
2018-02-21T16:18:05.408Z,79.10
2018-02-21T16:20:33.631Z,64.50
2018-02-21T16:23:01.860Z,64.60
2018-02-21T16:25:29.309Z,64.40
2018-02-21T16:27:56.781Z,65.10
2018-02-21T16:30:24.260Z,65.10
2018-02-21T16:32:51.706Z,65.10
2018-02-21T16:35:19.170Z,65.20
2018-02-21T16:37:46.622Z,64.90
2018-02-21T16:40:14.842Z,65.80
2018-02-21T16:42:42.319Z,65.70
2018-02-21T16:45:09.774Z,65.70
2018-02-21T16:47:37.220Z,65.70
2018-02-21T16:50:04.687Z,66.30
2018-02-21T16:52:32.139Z,66.50
2018-02-21T16:54:59.602Z,67.00
2018-02-21T16:57:27.064Z,67.60
2018-02-21T16:59:54.521Z,67.90
2018-02-21T17:02:22.372Z,66.50
2018-02-21T17:04:49.831Z,67.20
2018-02-21T17:07:17.278Z,84.90
2018-02-21T17:09:44.747Z,67.80
2018-02-21T17:12:12.235Z,74.80
2018-02-21T17:14:39.684Z,88.00
2018-02-21T17:17:07.144Z,68.60
2018-02-21T17:19:34.608Z,68.50
2018-02-21T17:22:02.091Z,68.30
2018-02-21T17:24:30.327Z,69.10
2018-02-21T17:26:57.791Z,69.00
2018-02-21T17:29:25.254Z,68.70
2018-02-21T17:31:52.712Z,69.00
2018-02-21T17:34:20.163Z,69.30
2018-02-21T17:36:47.672Z,69.20
2018-02-21T17:39:15.904Z,69.00
2018-02-21T17:41:43.368Z,69.20
2018-02-21T17:44:10.821Z,69.40
2018-02-21T17:46:38.302Z,68.50
2018-02-21T17:49:06.522Z,69.80
2018-02-21T17:51:33.977Z,68.80
2018-02-21T17:54:01.442Z,68.50
2018-02-21T17:56:28.904Z,68.60
2018-02-21T17:58:56.366Z,68.60
2018-02-21T18:01:23.830Z,68.60
2018-02-21T18:03:51.273Z,69.10
2018-02-21T18:06:18.738Z,68.30
2018-02-21T18:08:46.224Z,68.50
2018-02-21T18:11:13.719Z,66.60
2018-02-21T18:13:41.184Z,68.20
2018-02-21T18:16:09.036Z,67.70
2018-02-21T18:18:36.488Z,68.50
2018-02-21T18:21:03.937Z,68.80
2018-02-21T18:23:31.418Z,70.00
2018-02-21T18:25:58.909Z,70.00
2018-02-21T18:28:26.369Z,69.50
2018-02-21T18:30:53.840Z,69.00
2018-02-21T18:33:21.292Z,69.20
2018-02-21T18:35:49.521Z,69.70
2018-02-21T18:38:16.973Z,69.70
2018-02-21T18:40:44.469Z,70.10
2018-02-21T18:43:11.920Z,69.60
2018-02-21T18:45:39.381Z,68.90
2018-02-21T18:48:06.846Z,68.80
2018-02-21T18:50:34.307Z,68.50
2018-02-21T18:53:01.761Z,68.70
2018-02-21T18:55:29.219Z,69.30
2018-02-21T18:57:56.668Z,68.40
2018-02-21T19:00:24.136Z,68.40
2018-02-21T19:02:52.361Z,69.60
2018-02-21T19:05:19.814Z,90.40
2018-02-21T19:07:47.267Z,66.90
2018-02-21T19:10:14.717Z,66.60
2018-02-21T19:12:42.190Z,84.80
2018-02-21T19:15:10.787Z,68.60
2018-02-21T19:17:38.254Z,68.60
2018-02-21T19:20:05.700Z,68.20
2018-02-21T19:22:33.170Z,68.10
2018-02-21T19:25:00.626Z,68.50
2018-02-21T19:27:28.096Z,68.50
2018-02-21T19:29:55.562Z,69.20
2018-02-21T19:32:23.801Z,68.70
2018-02-21T19:34:51.257Z,68.70
2018-02-21T19:37:18.742Z,67.60
2018-02-21T19:39:46.178Z,68.20
2018-02-21T19:42:13.625Z,66.70
2018-02-21T19:44:41.076Z,67.40
2018-02-21T19:47:08.532Z,67.00
2018-02-21T19:49:35.983Z,66.70
2018-02-21T19:52:03.443Z,67.20
2018-02-21T19:54:30.910Z,66.90
2018-02-21T19:56:58.394Z,67.30
2018-02-21T19:59:25.853Z,67.40
2018-02-21T20:01:53.301Z,67.50
2018-02-21T20:04:20.803Z,66.80
2018-02-21T20:06:48.250Z,66.30
2018-02-21T20:09:16.470Z,66.60
2018-02-21T20:11:43.933Z,93.70
2018-02-21T20:14:11.385Z,82.10
2018-02-21T20:16:39.252Z,66.70
2018-02-21T20:19:06.694Z,67.40
2018-02-21T20:21:34.158Z,67.40
2018-02-21T20:24:01.626Z,67.10
2018-02-21T20:26:29.077Z,67.00
2018-02-21T20:28:56.557Z,66.80
2018-02-21T20:31:24.001Z,67.10
2018-02-21T20:33:51.484Z,67.10
2018-02-21T20:36:19.720Z,67.80
2018-02-21T20:38:47.183Z,67.70
2018-02-21T20:41:14.629Z,67.30
2018-02-21T20:43:42.858Z,67.20
2018-02-21T20:46:11.070Z,67.00
2018-02-21T20:48:38.607Z,66.90
2018-02-21T20:51:06.054Z,67.20
2018-02-21T20:53:33.518Z,66.90
2018-02-21T20:56:00.973Z,66.50
2018-02-21T20:58:28.422Z,67.10
2018-02-21T21:00:55.869Z,67.70
2018-02-21T21:03:24.104Z,67.30
2018-02-21T21:05:51.561Z,76.70
2018-02-21T21:08:19.010Z,66.60
2018-02-21T21:10:47.222Z,67.20
2018-02-21T21:13:15.449Z,67.10
2018-02-21T21:15:42.927Z,94.40
2018-02-21T21:18:10.380Z,74.70
2018-02-21T21:20:38.599Z,66.70
2018-02-21T21:23:08.728Z,67.10
2018-02-21T21:25:36.190Z,67.00
2018-02-21T21:28:03.652Z,66.70
2018-02-21T21:30:34.791Z,66.50
2018-02-21T21:33:02.262Z,66.70
2018-02-21T21:35:29.753Z,66.50
2018-02-21T21:37:57.228Z,66.70
2018-02-21T21:40:24.662Z,66.90
2018-02-21T21:42:52.212Z,67.30
2018-02-21T21:45:19.708Z,66.40
2018-02-21T21:47:47.164Z,67.10
2018-02-21T21:50:15.390Z,67.30
2018-02-21T21:52:42.897Z,67.20
2018-02-21T21:55:11.111Z,67.10
2018-02-21T21:57:38.574Z,67.10
2018-02-21T22:00:06.044Z,67.10
2018-02-21T22:02:33.490Z,66.30
2018-02-21T22:05:00.951Z,65.90
2018-02-21T22:07:28.492Z,65.00
2018-02-21T22:09:56.011Z,65.00
2018-02-21T22:12:24.020Z,64.90
2018-02-21T22:14:51.536Z,66.20
2018-02-21T22:17:21.671Z,64.80
2018-02-21T22:19:49.690Z,64.40
2018-02-21T22:22:19.348Z,65.20
2018-02-21T22:24:56.670Z,67.50
2018-02-21T22:27:24.642Z,92.10
2018-02-21T22:29:53.190Z,64.20
2018-02-21T22:32:21.946Z,64.10
2018-02-21T22:34:50.393Z,64.40
2018-02-21T22:37:18.037Z,63.90
2018-02-21T22:39:52.260Z,64.50
2018-02-21T22:42:20.646Z,64.60
2018-02-21T22:44:48.216Z,64.60
2018-02-21T22:47:18.389Z,63.50
2018-02-21T22:49:50.389Z,63.80
2018-02-21T22:52:19.967Z,64.20
2018-02-21T22:54:47.945Z,63.20
2018-02-21T22:57:16.856Z,63.80
2018-02-21T23:02:24.744Z,64.30
2018-02-21T23:04:55.158Z,63.80
2018-02-21T23:07:26.807Z,63.40
2018-02-21T23:09:55.124Z,63.90
2018-02-21T23:12:25.258Z,63.30
2018-02-21T23:14:54.285Z,63.00
2018-02-21T23:17:21.950Z,62.60
2018-02-21T23:19:53.390Z,62.00
2018-02-21T23:22:21.757Z,63.50
2018-02-21T23:24:52.778Z,62.60
2018-02-21T23:27:23.809Z,61.60
2018-02-21T23:29:52.929Z,62.20
2018-02-21T23:32:22.562Z,62.90
2018-02-21T23:34:54.293Z,62.90
2018-02-21T23:37:27.732Z,61.90
2018-02-21T23:39:56.037Z,62.70
2018-02-21T23:42:24.183Z,62.20
2018-02-21T23:44:55.104Z,63.50
2018-02-21T23:47:23.545Z,62.50
2018-02-21T23:49:56.779Z,63.10
2018-02-21T23:52:27.236Z,62.70
2018-02-21T23:54:56.442Z,61.50
2018-02-21T23:57:25.282Z,61.90
2018-02-21T23:59:54.683Z,62.60
